sensor_id;sensor_type;location;lat;lon;timestamp;pressure;altitude;pressure_sealevel;temperature;humidity
82375;BME280;72005;50.496;15.798;2023-09-07T00:00:22;96508.91;;;16.88;64.47
82375;BME280;72005;50.496;15.798;2023-09-07T00:03:08;96506.28;;;16.83;64.99
82375;BME280;72005;50.496;15.798;2023-09-07T00:05:34;96520.38;;;16.83;64.52
82375;BME280;72005;50.496;15.798;2023-09-07T00:07:59;96514.00;;;16.79;64.81
82375;BME280;72005;50.496;15.798;2023-09-07T00:10:26;96510.81;;;16.72;65.64
82375;BME280;72005;50.496;15.798;2023-09-07T00:12:52;96510.06;;;16.66;65.52
82375;BME280;72005;50.496;15.798;2023-09-07T00:15:18;96512.16;;;16.64;65.87
82375;BME280;72005;50.496;15.798;2023-09-07T00:17:46;96506.34;;;16.62;65.96
82375;BME280;72005;50.496;15.798;2023-09-07T00:20:12;96511.16;;;16.55;66.18
82375;BME280;72005;50.496;15.798;2023-09-07T00:22:40;96502.66;;;16.53;66.05
82375;BME280;72005;50.496;15.798;2023-09-07T00:25:07;96506.38;;;16.47;66.66
82375;BME280;72005;50.496;15.798;2023-09-07T00:27:33;96511.94;;;16.56;65.74
82375;BME280;72005;50.496;15.798;2023-09-07T00:30:00;96510.06;;;16.56;65.79
82375;BME280;72005;50.496;15.798;2023-09-07T00:32:25;96509.28;;;16.51;65.89
82375;BME280;72005;50.496;15.798;2023-09-07T00:34:51;96516.19;;;16.52;65.86
82375;BME280;72005;50.496;15.798;2023-09-07T00:37:16;96517.50;;;16.54;65.56
82375;BME280;72005;50.496;15.798;2023-09-07T00:39:42;96507.94;;;16.58;65.53
82375;BME280;72005;50.496;15.798;2023-09-07T00:42:08;96510.59;;;16.58;65.44
82375;BME280;72005;50.496;15.798;2023-09-07T00:44:33;96508.22;;;16.57;65.53
82375;BME280;72005;50.496;15.798;2023-09-07T00:46:59;96504.78;;;16.51;65.94
82375;BME280;72005;50.496;15.798;2023-09-07T00:49:25;96509.03;;;16.47;66.10
82375;BME280;72005;50.496;15.798;2023-09-07T00:51:51;96515.97;;;16.43;66.39
82375;BME280;72005;50.496;15.798;2023-09-07T00:54:18;96508.78;;;16.43;66.30
82375;BME280;72005;50.496;15.798;2023-09-07T00:56:43;96508.50;;;16.40;66.39
82375;BME280;72005;50.496;15.798;2023-09-07T00:59:09;96513.03;;;16.39;66.30
82375;BME280;72005;50.496;15.798;2023-09-07T01:01:36;96508.50;;;16.40;66.39
82375;BME280;72005;50.496;15.798;2023-09-07T01:04:02;96513.81;;;16.40;66.33
82375;BME280;72005;50.496;15.798;2023-09-07T01:06:30;96510.91;;;16.36;66.46
82375;BME280;72005;50.496;15.798;2023-09-07T01:09:01;96502.97;;;16.31;66.57
82375;BME280;72005;50.496;15.798;2023-09-07T01:11:36;96509.09;;;16.32;66.61
82375;BME280;72005;50.496;15.798;2023-09-07T01:14:03;96501.91;;;16.37;66.39
82375;BME280;72005;50.496;15.798;2023-09-07T01:16:30;96503.50;;;16.33;66.63
82375;BME280;72005;50.496;15.798;2023-09-07T01:18:56;96497.41;;;16.33;66.66
82375;BME280;72005;50.496;15.798;2023-09-07T01:21:22;96497.94;;;16.30;66.77
82375;BME280;72005;50.496;15.798;2023-09-07T01:23:48;96501.66;;;16.29;66.58
82375;BME280;72005;50.496;15.798;2023-09-07T01:26:15;96496.38;;;16.29;66.75
82375;BME280;72005;50.496;15.798;2023-09-07T01:28:41;96499.03;;;16.29;66.83
82375;BME280;72005;50.496;15.798;2023-09-07T01:31:07;96503.78;;;16.27;66.68
82375;BME280;72005;50.496;15.798;2023-09-07T01:33:33;96497.94;;;16.30;66.61
82375;BME280;72005;50.496;15.798;2023-09-07T01:35:58;96503.25;;;16.30;66.61
82375;BME280;72005;50.496;15.798;2023-09-07T01:38:25;96497.94;;;16.30;66.70
82375;BME280;72005;50.496;15.798;2023-09-07T01:40:50;96494.22;;;16.31;66.50
82375;BME280;72005;50.496;15.798;2023-09-07T01:43:16;96494.22;;;16.31;66.47
82375;BME280;72005;50.496;15.798;2023-09-07T01:45:41;96499.53;;;16.31;66.68
82375;BME280;72005;50.496;15.798;2023-09-07T01:48:11;96493.19;;;16.32;66.54
82375;BME280;72005;50.496;15.798;2023-09-07T01:50:37;96494.22;;;16.31;66.61
82375;BME280;72005;50.496;15.798;2023-09-07T01:53:03;96496.09;;;16.25;66.89
82375;BME280;72005;50.496;15.798;2023-09-07T01:55:30;96499.03;;;16.18;67.27
82375;BME280;72005;50.496;15.798;2023-09-07T01:57:57;96494.81;;;16.12;67.26
82375;BME280;72005;50.496;15.798;2023-09-07T02:00:22;96491.13;;;16.03;67.47
82375;BME280;72005;50.496;15.798;2023-09-07T02:02:48;96489.78;;;15.90;67.78
82375;BME280;72005;50.496;15.798;2023-09-07T02:05:13;96496.94;;;15.85;67.97
82375;BME280;72005;50.496;15.798;2023-09-07T02:07:39;96489.81;;;15.80;67.96
82375;BME280;72005;50.496;15.798;2023-09-07T02:10:05;96488.47;;;15.72;68.51
82375;BME280;72005;50.496;15.798;2023-09-07T02:12:31;96490.59;;;15.70;68.47
82375;BME280;72005;50.496;15.798;2023-09-07T02:15:02;96488.72;;;15.66;69.00
82375;BME280;72005;50.496;15.798;2023-09-07T02:17:29;96485.28;;;15.65;68.92
82375;BME280;72005;50.496;15.798;2023-09-07T02:19:55;96486.84;;;15.66;69.22
82375;BME280;72005;50.496;15.798;2023-09-07T02:22:21;96479.16;;;15.65;69.25
82375;BME280;72005;50.496;15.798;2023-09-07T02:24:47;96480.28;;;15.69;69.03
82375;BME280;72005;50.496;15.798;2023-09-07T02:27:13;96479.97;;;15.65;69.14
82375;BME280;72005;50.496;15.798;2023-09-07T02:29:38;96485.78;;;15.62;69.29
82375;BME280;72005;50.496;15.798;2023-09-07T02:32:04;96486.31;;;15.59;69.25
82375;BME280;72005;50.496;15.798;2023-09-07T02:34:30;96488.97;;;15.59;69.13
82375;BME280;72005;50.496;15.798;2023-09-07T02:36:56;96486.84;;;15.51;69.32
82375;BME280;72005;50.496;15.798;2023-09-07T02:39:22;96497.16;;;15.47;69.31
82375;BME280;72005;50.496;15.798;2023-09-07T02:41:52;96486.31;;;15.39;69.50
82375;BME280;72005;50.496;15.798;2023-09-07T02:44:18;96493.19;;;15.34;69.47
82375;BME280;72005;50.496;15.798;2023-09-07T02:46:43;96490.50;;;15.24;69.70
82375;BME280;72005;50.496;15.798;2023-09-07T02:49:09;96488.66;;;15.15;70.21
82375;BME280;72005;50.496;15.798;2023-09-07T02:51:35;96489.44;;;15.05;70.42
82375;BME280;72005;50.496;15.798;2023-09-07T02:54:02;96484.94;;;15.05;70.58
82375;BME280;72005;50.496;15.798;2023-09-07T02:56:29;96485.44;;;15.02;70.68
82375;BME280;72005;50.496;15.798;2023-09-07T02:58:54;96481.47;;;15.00;70.63
82375;BME280;72005;50.496;15.798;2023-09-07T03:01:20;96488.88;;;14.98;70.68
82375;BME280;72005;50.496;15.798;2023-09-07T03:03:46;96481.97;;;14.92;70.90
82375;BME280;72005;50.496;15.798;2023-09-07T03:06:13;96483.00;;;14.80;71.60
82375;BME280;72005;50.496;15.798;2023-09-07T03:08:39;96486.19;;;14.82;71.37
82375;BME280;72005;50.496;15.798;2023-09-07T03:11:06;96492.00;;;14.79;71.42
82375;BME280;72005;50.496;15.798;2023-09-07T03:13:32;96487.22;;;14.76;71.48
82375;BME280;72005;50.496;15.798;2023-09-07T03:15:59;96496.72;;;14.72;71.76
82375;BME280;72005;50.496;15.798;2023-09-07T03:18:25;96487.72;;;14.68;71.90
82375;BME280;72005;50.496;15.798;2023-09-07T03:20:53;96488.22;;;14.60;72.48
82375;BME280;72005;50.496;15.798;2023-09-07T03:23:19;96480.78;;;14.57;72.76
82375;BME280;72005;50.496;15.798;2023-09-07T03:25:44;96484.22;;;14.57;73.05
82375;BME280;72005;50.496;15.798;2023-09-07T03:28:10;96479.72;;;14.58;73.46
82375;BME280;72005;50.496;15.798;2023-09-07T03:30:36;96485.28;;;14.61;73.73
82375;BME280;72005;50.496;15.798;2023-09-07T03:33:01;96477.91;;;14.63;73.54
82375;BME280;72005;50.496;15.798;2023-09-07T03:35:28;96476.06;;;14.69;73.26
82375;BME280;72005;50.496;15.798;2023-09-07T03:37:55;96482.94;;;14.70;73.06
82375;BME280;72005;50.496;15.798;2023-09-07T03:40:20;96479.00;;;14.73;72.88
82375;BME280;72005;50.496;15.798;2023-09-07T03:42:46;96479.28;;;14.71;72.55
82375;BME280;72005;50.496;15.798;2023-09-07T03:45:12;96485.88;;;14.74;72.47
82375;BME280;72005;50.496;15.798;2023-09-07T03:47:38;96475.28;;;14.69;72.42
82375;BME280;72005;50.496;15.798;2023-09-07T03:50:04;96480.81;;;14.62;72.78
82375;BME280;72005;50.496;15.798;2023-09-07T03:52:30;96482.66;;;14.56;72.83
82375;BME280;72005;50.496;15.798;2023-09-07T03:54:57;96485.00;;;14.53;72.93
82375;BME280;72005;50.496;15.798;2023-09-07T03:57:24;96480.97;;;14.45;73.20
82375;BME280;72005;50.496;15.798;2023-09-07T03:59:50;96481.75;;;14.40;73.19
82375;BME280;72005;50.496;15.798;2023-09-07T04:02:16;96478.53;;;14.38;73.33
82375;BME280;72005;50.496;15.798;2023-09-07T04:04:52;96480.41;;;14.38;73.22
82375;BME280;72005;50.496;15.798;2023-09-07T04:07:18;96488.84;;;14.35;73.38
82375;BME280;72005;50.496;15.798;2023-09-07T04:09:44;96487.81;;;14.36;73.46
82375;BME280;72005;50.496;15.798;2023-09-07T04:12:10;96490.47;;;14.36;73.72
82375;BME280;72005;50.496;15.798;2023-09-07T04:14:36;96499.19;;;14.36;74.16
82375;BME280;72005;50.496;15.798;2023-09-07T04:17:03;96499.94;;;14.32;74.40
82375;BME280;72005;50.496;15.798;2023-09-07T04:19:28;96487.00;;;14.35;74.52
82375;BME280;72005;50.496;15.798;2023-09-07T04:21:54;96490.19;;;14.37;74.92
82375;BME280;72005;50.496;15.798;2023-09-07T04:24:20;96495.53;;;14.48;74.63
82375;BME280;72005;50.496;15.798;2023-09-07T04:26:47;96489.28;;;14.59;74.96
82375;BME280;72005;50.496;15.798;2023-09-07T04:29:13;96495.41;;;14.75;74.45
82375;BME280;72005;50.496;15.798;2023-09-07T04:31:38;96498.63;;;14.87;74.06
82375;BME280;72005;50.496;15.798;2023-09-07T04:34:04;96492.84;;;15.00;73.77
82375;BME280;72005;50.496;15.798;2023-09-07T04:36:30;96496.31;;;15.11;73.46
82375;BME280;72005;50.496;15.798;2023-09-07T04:38:55;96494.22;;;15.18;73.02
82375;BME280;72005;50.496;15.798;2023-09-07T04:41:21;96495.28;;;15.22;72.97
82375;BME280;72005;50.496;15.798;2023-09-07T04:43:47;96498.75;;;15.28;72.90
82375;BME280;72005;50.496;15.798;2023-09-07T04:46:13;96498.75;;;15.28;72.66
82375;BME280;72005;50.496;15.798;2023-09-07T04:48:40;96498.72;;;15.33;72.72
82375;BME280;72005;50.496;15.798;2023-09-07T04:51:08;96495.81;;;15.29;72.89
82375;BME280;72005;50.496;15.798;2023-09-07T04:53:38;96493.72;;;15.31;72.70
82375;BME280;72005;50.496;15.798;2023-09-07T04:56:05;96495.28;;;15.32;72.62
82375;BME280;72005;50.496;15.798;2023-09-07T04:58:31;96496.38;;;15.37;72.80
82375;BME280;72005;50.496;15.798;2023-09-07T05:01:07;96492.91;;;15.41;72.55
82375;BME280;72005;50.496;15.798;2023-09-07T05:03:34;96496.91;;;15.49;72.58
82375;BME280;72005;50.496;15.798;2023-09-07T05:06:00;96499.28;;;15.55;72.42
82375;BME280;72005;50.496;15.798;2023-09-07T05:08:27;96487.94;;;15.65;72.07
82375;BME280;72005;50.496;15.798;2023-09-07T05:10:56;96495.63;;;15.72;72.07
82375;BME280;72005;50.496;15.798;2023-09-07T05:13:24;96485.81;;;15.77;72.00
82375;BME280;72005;50.496;15.798;2023-09-07T05:15:50;96490.59;;;15.81;71.89
82375;BME280;72005;50.496;15.798;2023-09-07T05:18:17;96490.56;;;15.91;71.65
82375;BME280;72005;50.496;15.798;2023-09-07T05:20:43;96494.28;;;16.00;71.44
82375;BME280;72005;50.496;15.798;2023-09-07T05:23:15;96494.00;;;16.07;71.57
82375;BME280;72005;50.496;15.798;2023-09-07T05:25:49;96501.69;;;16.18;71.39
82375;BME280;72005;50.496;15.798;2023-09-07T05:28:19;96500.06;;;16.28;71.26
82375;BME280;72005;50.496;15.798;2023-09-07T05:30:45;96499.53;;;16.31;71.40
82375;BME280;72005;50.496;15.798;2023-09-07T05:33:13;96504.28;;;16.39;71.21
82375;BME280;72005;50.496;15.798;2023-09-07T05:35:39;96504.28;;;16.44;70.49
82375;BME280;72005;50.496;15.798;2023-09-07T05:38:05;96503.19;;;16.50;70.72
82375;BME280;72005;50.496;15.798;2023-09-07T05:40:38;96510.06;;;16.61;70.15
82375;BME280;72005;50.496;15.798;2023-09-07T05:43:05;96507.38;;;16.72;69.79
82375;BME280;72005;50.496;15.798;2023-09-07T05:45:35;96502.06;;;16.82;69.99
82375;BME280;72005;50.496;15.798;2023-09-07T05:48:04;96507.56;;;17.01;69.69
82375;BME280;72005;50.496;15.798;2023-09-07T05:50:33;96499.75;;;17.14;69.31
82375;BME280;72005;50.496;15.798;2023-09-07T05:52:58;96511.63;;;17.32;68.70
82375;BME280;72005;50.496;15.798;2023-09-07T05:55:24;96509.63;;;17.53;68.57
82375;BME280;72005;50.496;15.798;2023-09-07T05:57:50;96507.38;;;18.34;67.86
82375;BME280;72005;50.496;15.798;2023-09-07T06:00:15;96502.81;;;19.64;65.86
82375;BME280;72005;50.496;15.798;2023-09-07T06:02:46;96506.84;;;20.87;62.61
82375;BME280;72005;50.496;15.798;2023-09-07T06:05:13;96516.75;;;21.95;59.74
82375;BME280;72005;50.496;15.798;2023-09-07T06:07:39;96517.47;;;22.72;56.62
82375;BME280;72005;50.496;15.798;2023-09-07T06:10:05;96517.34;;;23.52;55.32
82375;BME280;72005;50.496;15.798;2023-09-07T06:12:35;96509.50;;;24.37;53.83
82375;BME280;72005;50.496;15.798;2023-09-07T06:15:01;96510.16;;;25.02;51.02
82375;BME280;72005;50.496;15.798;2023-09-07T06:17:28;96516.34;;;25.53;49.71
82375;BME280;72005;50.496;15.798;2023-09-07T06:19:54;96517.91;;;25.96;48.44
82375;BME280;72005;50.496;15.798;2023-09-07T06:22:20;96517.09;;;26.29;47.46
82375;BME280;72005;50.496;15.798;2023-09-07T06:24:46;96511.78;;;26.66;46.61
82375;BME280;72005;50.496;15.798;2023-09-07T06:27:11;96519.09;;;27.02;46.01
82375;BME280;72005;50.496;15.798;2023-09-07T06:29:37;96519.16;;;27.30;44.16
82375;BME280;72005;50.496;15.798;2023-09-07T06:32:03;96526.53;;;27.58;43.63
82375;BME280;72005;50.496;15.798;2023-09-07T06:34:28;96517.28;;;27.59;42.67
82375;BME280;72005;50.496;15.798;2023-09-07T06:36:54;96520.41;;;27.73;42.21
82375;BME280;72005;50.496;15.798;2023-09-07T06:39:20;96530.25;;;27.94;41.71
82375;BME280;72005;50.496;15.798;2023-09-07T06:41:46;96521.03;;;27.95;40.89
82375;BME280;72005;50.496;15.798;2023-09-07T06:44:12;96524.84;;;27.94;40.77
82375;BME280;72005;50.496;15.798;2023-09-07T06:46:38;96529.91;;;27.55;40.65
82375;BME280;72005;50.496;15.798;2023-09-07T06:49:03;96529.09;;;26.77;41.20
82375;BME280;72005;50.496;15.798;2023-09-07T06:51:32;96538.13;;;26.02;42.47
82375;BME280;72005;50.496;15.798;2023-09-07T06:53:58;96532.06;;;25.63;43.88
82375;BME280;72005;50.496;15.798;2023-09-07T06:56:24;96534.28;;;25.19;44.99
82375;BME280;72005;50.496;15.798;2023-09-07T06:58:49;96528.72;;;24.95;45.46
82375;BME280;72005;50.496;15.798;2023-09-07T07:01:15;96537.56;;;24.66;45.79
82375;BME280;72005;50.496;15.798;2023-09-07T07:03:41;96536.03;;;24.47;46.15
82375;BME280;72005;50.496;15.798;2023-09-07T07:06:07;96538.72;;;24.39;46.53
82375;BME280;72005;50.496;15.798;2023-09-07T07:08:32;96536.66;;;24.36;46.96
82375;BME280;72005;50.496;15.798;2023-09-07T07:10:58;96542.50;;;24.38;47.90
82375;BME280;72005;50.496;15.798;2023-09-07T07:13:24;96539.69;;;24.43;47.71
82375;BME280;72005;50.496;15.798;2023-09-07T07:15:50;96541.09;;;24.40;48.06
82375;BME280;72005;50.496;15.798;2023-09-07T07:18:15;96547.88;;;24.38;47.78
82375;BME280;72005;50.496;15.798;2023-09-07T07:20:42;96548.06;;;24.24;47.01
82375;BME280;72005;50.496;15.798;2023-09-07T07:23:12;96552.97;;;24.13;47.56
82375;BME280;72005;50.496;15.798;2023-09-07T07:25:40;96552.69;;;24.06;47.78
82375;BME280;72005;50.496;15.798;2023-09-07T07:28:06;96543.19;;;24.17;47.62
82375;BME280;72005;50.496;15.798;2023-09-07T07:30:37;96543.47;;;24.24;47.08
82375;BME280;72005;50.496;15.798;2023-09-07T07:33:04;96539.69;;;24.43;47.82
82375;BME280;72005;50.496;15.798;2023-09-07T07:35:33;96540.88;;;24.54;46.97
82375;BME280;72005;50.496;15.798;2023-09-07T07:38:00;96541.97;;;24.62;47.36
82375;BME280;72005;50.496;15.798;2023-09-07T07:40:26;96542.69;;;24.80;47.95
82375;BME280;72005;50.496;15.798;2023-09-07T07:42:52;96546.41;;;24.96;47.38
82375;BME280;72005;50.496;15.798;2023-09-07T07:45:18;96547.16;;;25.05;47.43
82375;BME280;72005;50.496;15.798;2023-09-07T07:47:50;96548.09;;;25.09;47.79
82375;BME280;72005;50.496;15.798;2023-09-07T07:50:16;96546.31;;;25.13;47.75
82375;BME280;72005;50.496;15.798;2023-09-07T07:52:42;96549.94;;;25.17;47.01
82375;BME280;72005;50.496;15.798;2023-09-07T07:55:09;96554.88;;;25.15;46.71
82375;BME280;72005;50.496;15.798;2023-09-07T07:57:35;96548.53;;;25.11;46.55
82375;BME280;72005;50.496;15.798;2023-09-07T08:00:01;96542.06;;;25.12;46.57
82375;BME280;72005;50.496;15.798;2023-09-07T08:02:29;96552.88;;;25.04;45.97
82375;BME280;72005;50.496;15.798;2023-09-07T08:04:56;96546.16;;;25.18;46.29
82375;BME280;72005;50.496;15.798;2023-09-07T08:07:21;96550.50;;;25.32;46.14
82375;BME280;72005;50.496;15.798;2023-09-07T08:09:47;96553.53;;;25.30;45.95
82375;BME280;72005;50.496;15.798;2023-09-07T08:12:13;96546.97;;;25.40;46.23
82375;BME280;72005;50.496;15.798;2023-09-07T08:14:39;96547.91;;;25.44;46.17
82375;BME280;72005;50.496;15.798;2023-09-07T08:17:05;96545.72;;;25.37;45.89
82375;BME280;72005;50.496;15.798;2023-09-07T08:19:36;96552.16;;;25.45;45.94
82375;BME280;72005;50.496;15.798;2023-09-07T08:22:10;96552.38;;;25.61;44.35
82375;BME280;72005;50.496;15.798;2023-09-07T08:24:35;96559.91;;;25.67;43.36
82375;BME280;72005;50.496;15.798;2023-09-07T08:27:01;96563.88;;;25.49;42.91
82375;BME280;72005;50.496;15.798;2023-09-07T08:29:27;96557.84;;;25.23;43.56
82375;BME280;72005;50.496;15.798;2023-09-07T08:31:53;96557.59;;;25.15;44.62
82375;BME280;72005;50.496;15.798;2023-09-07T08:34:20;96550.72;;;25.27;44.14
82375;BME280;72005;50.496;15.798;2023-09-07T08:36:47;96544.94;;;25.37;43.15
82375;BME280;72005;50.496;15.798;2023-09-07T08:39:16;96545.88;;;25.41;43.29
82375;BME280;72005;50.496;15.798;2023-09-07T08:41:43;96547.81;;;25.32;43.25
82375;BME280;72005;50.496;15.798;2023-09-07T08:44:10;96545.22;;;25.44;43.23
82375;BME280;72005;50.496;15.798;2023-09-07T08:46:40;96545.75;;;25.58;43.62
82375;BME280;72005;50.496;15.798;2023-09-07T08:49:06;96552.03;;;25.62;43.82
82375;BME280;72005;50.496;15.798;2023-09-07T08:51:34;96552.50;;;25.64;43.61
82375;BME280;72005;50.496;15.798;2023-09-07T08:54:03;96556.94;;;25.60;43.59
82375;BME280;72005;50.496;15.798;2023-09-07T08:56:29;96556.03;;;25.56;43.10
82375;BME280;72005;50.496;15.798;2023-09-07T08:58:55;96553.34;;;25.56;43.06
82375;BME280;72005;50.496;15.798;2023-09-07T09:01:21;96554.00;;;25.53;42.83
82375;BME280;72005;50.496;15.798;2023-09-07T09:03:50;96551.63;;;25.52;43.78
82375;BME280;72005;50.496;15.798;2023-09-07T09:06:18;96551.91;;;25.59;44.21
82375;BME280;72005;50.496;15.798;2023-09-07T09:08:49;96553.88;;;25.71;44.14
82375;BME280;72005;50.496;15.798;2023-09-07T09:11:16;96553.03;;;25.79;43.88
82375;BME280;72005;50.496;15.798;2023-09-07T09:13:43;96555.00;;;25.91;43.69
82375;BME280;72005;50.496;15.798;2023-09-07T09:16:10;96554.47;;;25.97;43.81
82375;BME280;72005;50.496;15.798;2023-09-07T09:18:36;96557.84;;;26.06;42.99
82375;BME280;72005;50.496;15.798;2023-09-07T09:21:03;96551.97;;;26.13;42.93
82375;BME280;72005;50.496;15.798;2023-09-07T09:23:36;96550.50;;;26.16;42.98
82375;BME280;72005;50.496;15.798;2023-09-07T09:26:04;96559.59;;;26.23;43.22
82375;BME280;72005;50.496;15.798;2023-09-07T09:28:32;96554.38;;;26.39;42.16
82375;BME280;72005;50.496;15.798;2023-09-07T09:30:59;96551.25;;;26.49;41.21
82375;BME280;72005;50.496;15.798;2023-09-07T09:33:25;96550.34;;;26.45;40.55
82375;BME280;72005;50.496;15.798;2023-09-07T09:35:54;96552.25;;;26.45;40.70
82375;BME280;72005;50.496;15.798;2023-09-07T09:38:20;96551.91;;;26.46;41.28
82375;BME280;72005;50.496;15.798;2023-09-07T09:40:46;96545.84;;;26.49;39.29
82375;BME280;72005;50.496;15.798;2023-09-07T09:43:12;96546.31;;;26.39;39.51
82375;BME280;72005;50.496;15.798;2023-09-07T09:45:38;96551.91;;;26.46;40.42
82375;BME280;72005;50.496;15.798;2023-09-07T09:48:05;96544.28;;;26.48;39.66
82375;BME280;72005;50.496;15.798;2023-09-07T09:50:32;96542.59;;;26.44;39.06
82375;BME280;72005;50.496;15.798;2023-09-07T09:53:06;96538.25;;;26.51;39.27
82375;BME280;72005;50.496;15.798;2023-09-07T09:55:33;96544.00;;;26.62;39.93
82375;BME280;72005;50.496;15.798;2023-09-07T09:57:59;96547.13;;;26.64;39.07
82375;BME280;72005;50.496;15.798;2023-09-07T10:00:25;96541.41;;;26.53;39.26
82375;BME280;72005;50.496;15.798;2023-09-07T10:05:30;96534.94;;;26.21;39.28
82375;BME280;72005;50.496;15.798;2023-09-07T10:08:02;96539.56;;;26.00;39.94
82375;BME280;72005;50.496;15.798;2023-09-07T10:10:35;96539.56;;;25.79;40.01
82375;BME280;72005;50.496;15.798;2023-09-07T10:13:05;96537.06;;;25.74;40.29
82375;BME280;72005;50.496;15.798;2023-09-07T10:15:31;96541.13;;;25.80;41.00
82375;BME280;72005;50.496;15.798;2023-09-07T10:18:14;96541.78;;;25.98;41.34
82375;BME280;72005;50.496;15.798;2023-09-07T10:20:51;96543.47;;;25.90;39.87
82375;BME280;72005;50.496;15.798;2023-09-07T10:23:18;96536.94;;;25.91;40.45
82375;BME280;72005;50.496;15.798;2023-09-07T10:25:48;96535.88;;;26.04;41.37
82375;BME280;72005;50.496;15.798;2023-09-07T10:28:22;96534.28;;;26.03;42.47
82375;BME280;72005;50.496;15.798;2023-09-07T10:31:01;96540.81;;;26.02;41.80
82375;BME280;72005;50.496;15.798;2023-09-07T10:33:30;96542.09;;;25.84;41.24
82375;BME280;72005;50.496;15.798;2023-09-07T10:35:57;96529.25;;;25.81;41.47
82375;BME280;72005;50.496;15.798;2023-09-07T10:38:23;96537.72;;;25.92;40.94
82375;BME280;72005;50.496;15.798;2023-09-07T10:40:55;96537.84;;;25.74;40.29
82375;BME280;72005;50.496;15.798;2023-09-07T10:43:27;96535.50;;;25.73;40.71
82375;BME280;72005;50.496;15.798;2023-09-07T10:45:54;96541.47;;;25.78;40.73
82375;BME280;72005;50.496;15.798;2023-09-07T10:48:21;96538.78;;;25.78;40.79
82375;BME280;72005;50.496;15.798;2023-09-07T10:50:47;96533.00;;;25.67;41.26
82375;BME280;72005;50.496;15.798;2023-09-07T10:53:14;96534.06;;;25.75;41.49
82375;BME280;72005;50.496;15.798;2023-09-07T10:55:40;96538.28;;;25.85;42.42
82375;BME280;72005;50.496;15.798;2023-09-07T10:58:09;96533.59;;;25.94;41.17
82375;BME280;72005;50.496;15.798;2023-09-07T11:00:36;96532.59;;;25.99;40.28
82375;BME280;72005;50.496;15.798;2023-09-07T11:03:09;96530.00;;;25.90;41.07
82375;BME280;72005;50.496;15.798;2023-09-07T11:05:37;96526.56;;;26.02;40.80
82375;BME280;72005;50.496;15.798;2023-09-07T11:08:05;96530.72;;;26.11;38.89
82375;BME280;72005;50.496;15.798;2023-09-07T11:10:33;96530.81;;;26.03;40.19
82375;BME280;72005;50.496;15.798;2023-09-07T11:13:02;96533.72;;;25.98;38.98
82375;BME280;72005;50.496;15.798;2023-09-07T11:15:30;96530.00;;;25.90;40.20
82375;BME280;72005;50.496;15.798;2023-09-07T11:17:56;96534.63;;;26.02;39.94
82375;BME280;72005;50.496;15.798;2023-09-07T11:20:23;96532.03;;;25.93;41.10
82375;BME280;72005;50.496;15.798;2023-09-07T11:22:49;96537.06;;;25.95;41.03
82375;BME280;72005;50.496;15.798;2023-09-07T11:25:16;96534.06;;;25.96;40.89
82375;BME280;72005;50.496;15.798;2023-09-07T11:27:48;96530.16;;;26.06;39.51
82375;BME280;72005;50.496;15.798;2023-09-07T11:30:17;96525.13;;;26.04;39.40
82375;BME280;72005;50.496;15.798;2023-09-07T11:32:43;96528.22;;;25.73;38.23
82375;BME280;72005;50.496;15.798;2023-09-07T11:35:09;96523.03;;;25.47;39.17
82375;BME280;72005;50.496;15.798;2023-09-07T11:37:35;96519.50;;;25.55;38.52
82375;BME280;72005;50.496;15.798;2023-09-07T11:40:01;96515.63;;;25.44;39.41
82375;BME280;72005;50.496;15.798;2023-09-07T11:42:29;96511.88;;;25.57;38.62
82375;BME280;72005;50.496;15.798;2023-09-07T11:44:55;96513.19;;;25.51;38.76
82375;BME280;72005;50.496;15.798;2023-09-07T11:47:21;96515.94;;;25.63;39.31
82375;BME280;72005;50.496;15.798;2023-09-07T11:49:46;96511.28;;;25.73;39.95
82375;BME280;72005;50.496;15.798;2023-09-07T11:52:14;96513.56;;;25.83;40.00
82375;BME280;72005;50.496;15.798;2023-09-07T11:54:39;96510.22;;;25.86;39.60
82375;BME280;72005;50.496;15.798;2023-09-07T11:57:05;96510.03;;;25.91;40.53
82375;BME280;72005;50.496;15.798;2023-09-07T11:59:31;96518.69;;;25.97;39.24
82375;BME280;72005;50.496;15.798;2023-09-07T12:01:57;96511.72;;;25.96;38.64
82375;BME280;72005;50.496;15.798;2023-09-07T12:04:23;96505.91;;;25.73;39.48
82375;BME280;72005;50.496;15.798;2023-09-07T12:06:49;96508.81;;;25.80;39.25
82375;BME280;72005;50.496;15.798;2023-09-07T12:09:15;96503.59;;;25.83;39.35
82375;BME280;72005;50.496;15.798;2023-09-07T12:11:42;96501.47;;;25.89;39.97
82375;BME280;72005;50.496;15.798;2023-09-07T12:14:09;96504.22;;;26.01;40.41
82375;BME280;72005;50.496;15.798;2023-09-07T12:16:34;96504.34;;;26.05;40.46
82375;BME280;72005;50.496;15.798;2023-09-07T12:19:00;96510.22;;;26.19;39.12
82375;BME280;72005;50.496;15.798;2023-09-07T12:21:26;96504.81;;;26.07;38.70
82375;BME280;72005;50.496;15.798;2023-09-07T12:23:51;96506.59;;;26.15;39.37
82375;BME280;72005;50.496;15.798;2023-09-07T12:26:17;96505.88;;;26.27;39.73
82375;BME280;72005;50.496;15.798;2023-09-07T12:28:44;96496.19;;;26.26;38.60
82375;BME280;72005;50.496;15.798;2023-09-07T12:31:10;96499.00;;;26.29;38.85
82375;BME280;72005;50.496;15.798;2023-09-07T12:33:37;96501.84;;;26.33;38.16
82375;BME280;72005;50.496;15.798;2023-09-07T12:36:03;96490.59;;;26.31;38.17
82375;BME280;72005;50.496;15.798;2023-09-07T12:38:29;96496.00;;;26.31;37.81
82375;BME280;72005;50.496;15.798;2023-09-07T12:40:55;96486.09;;;26.35;38.23
82375;BME280;72005;50.496;15.798;2023-09-07T12:43:21;96494.66;;;26.37;38.47
82375;BME280;72005;50.496;15.798;2023-09-07T12:45:47;96486.56;;;26.37;37.91
82375;BME280;72005;50.496;15.798;2023-09-07T12:48:12;96485.91;;;26.40;38.60
82375;BME280;72005;50.496;15.798;2023-09-07T12:50:38;96489.72;;;26.27;38.44